createdAt,value
2019-03-12T00:01:27.879Z,99.90
2019-03-12T00:03:59.017Z,99.90
2019-03-12T00:06:30.278Z,99.90
2019-03-12T00:09:01.380Z,99.90
2019-03-12T00:11:34.093Z,99.90
2019-03-12T00:14:06.219Z,99.90
2019-03-12T00:16:37.314Z,99.90
2019-03-12T00:19:08.433Z,99.90
2019-03-12T00:21:39.516Z,99.90
2019-03-12T00:24:10.590Z,99.90
2019-03-12T00:26:41.633Z,99.90
2019-03-12T00:29:12.735Z,99.90
2019-03-12T00:31:43.811Z,99.90
2019-03-12T00:34:15.110Z,99.90
2019-03-12T00:36:46.442Z,99.90
2019-03-12T00:39:17.559Z,99.90
2019-03-12T00:41:48.651Z,99.90
2019-03-12T00:44:19.803Z,99.90
2019-03-12T00:46:50.948Z,99.90
2019-03-12T00:49:22.092Z,99.90
2019-03-12T00:51:53.239Z,99.90
2019-03-12T00:54:24.504Z,99.90
2019-03-12T00:56:55.611Z,99.90
2019-03-12T00:59:26.775Z,99.90
2019-03-12T01:01:57.856Z,99.90
2019-03-12T01:04:28.972Z,99.90
2019-03-12T01:07:00.369Z,99.90
2019-03-12T01:09:31.463Z,99.90
2019-03-12T01:12:02.604Z,99.90
2019-03-12T01:14:33.833Z,99.90
2019-03-12T01:17:04.949Z,99.90
2019-03-12T01:19:36.082Z,99.90
2019-03-12T01:22:07.265Z,99.90
2019-03-12T01:24:38.473Z,99.90
2019-03-12T01:27:09.709Z,99.90
2019-03-12T01:29:40.881Z,99.90
2019-03-12T01:32:11.981Z,99.90
2019-03-12T01:34:43.075Z,99.90
2019-03-12T01:37:14.410Z,99.90
2019-03-12T01:39:45.556Z,99.90
2019-03-12T01:42:16.681Z,99.90
2019-03-12T01:44:47.739Z,99.90
2019-03-12T01:47:18.860Z,99.90
2019-03-12T01:49:49.989Z,99.90
2019-03-12T01:52:21.220Z,99.90
2019-03-12T01:54:52.298Z,99.90
2019-03-12T01:57:24.636Z,99.90
2019-03-12T01:59:55.896Z,99.90
2019-03-12T02:02:27.053Z,99.90
2019-03-12T02:04:58.179Z,99.90
2019-03-12T02:07:39.042Z,99.90
2019-03-12T02:10:10.393Z,99.90
2019-03-12T02:12:41.554Z,99.90
2019-03-12T02:15:12.916Z,99.90
2019-03-12T02:17:44.052Z,99.90
2019-03-12T02:20:16.207Z,99.90
2019-03-12T02:22:47.425Z,99.90
2019-03-12T02:25:18.549Z,99.90
2019-03-12T02:27:49.743Z,99.90
2019-03-12T02:30:21.327Z,99.90
2019-03-12T02:32:52.530Z,99.90
2019-03-12T02:35:23.577Z,99.90
2019-03-12T02:37:55.123Z,99.90
2019-03-12T02:40:26.278Z,99.90
2019-03-12T02:42:57.378Z,99.90
2019-03-12T02:45:28.446Z,99.90
2019-03-12T02:47:59.540Z,99.90
2019-03-12T02:50:30.616Z,99.90
2019-03-12T02:53:01.776Z,99.90
2019-03-12T02:55:32.839Z,99.90
2019-03-12T02:58:03.901Z,99.90
2019-03-12T03:00:35.043Z,99.90
2019-03-12T03:03:06.167Z,99.90
2019-03-12T03:05:47.057Z,99.90
2019-03-12T03:08:19.700Z,99.90
2019-03-12T03:10:50.783Z,99.90
2019-03-12T03:13:21.877Z,99.90
2019-03-12T03:15:52.911Z,99.90
2019-03-12T03:18:24.056Z,99.90
2019-03-12T03:20:55.143Z,99.90
2019-03-12T03:23:26.282Z,99.90
2019-03-12T03:25:57.431Z,99.90
2019-03-12T03:28:28.528Z,99.90
2019-03-12T03:30:59.662Z,99.90
2019-03-12T03:33:30.814Z,99.90
2019-03-12T03:36:02.002Z,99.90
2019-03-12T03:38:33.465Z,99.90
2019-03-12T03:41:04.572Z,99.90
2019-03-12T03:43:35.658Z,99.90
2019-03-12T03:46:06.802Z,99.90
2019-03-12T03:48:38.979Z,99.90
2019-03-12T03:51:10.202Z,99.90
2019-03-12T03:53:41.274Z,99.90
2019-03-12T03:56:12.335Z,99.90
2019-03-12T03:58:43.460Z,99.90
2019-03-12T04:01:14.577Z,99.90
2019-03-12T04:03:45.789Z,99.90
2019-03-12T04:06:16.852Z,99.90
2019-03-12T04:08:48.045Z,99.90
2019-03-12T04:11:19.160Z,99.90
2019-03-12T04:13:50.318Z,99.90
2019-03-12T04:16:21.502Z,99.90
2019-03-12T04:18:52.680Z,99.90
2019-03-12T04:21:23.803Z,99.90
2019-03-12T04:23:54.920Z,99.90
2019-03-12T04:26:27.148Z,99.90
2019-03-12T04:28:58.289Z,99.90
2019-03-12T04:31:29.691Z,99.90
2019-03-12T04:34:24.100Z,99.90
2019-03-12T04:36:55.294Z,99.90
2019-03-12T04:39:26.751Z,99.90
2019-03-12T04:41:57.827Z,99.90
2019-03-12T04:44:28.937Z,99.90
2019-03-12T04:47:00.059Z,99.90
2019-03-12T04:49:31.150Z,99.90
2019-03-12T04:52:02.227Z,99.90
2019-03-12T04:54:33.395Z,99.90
2019-03-12T04:57:04.532Z,99.90
2019-03-12T04:59:35.641Z,99.90
2019-03-12T05:02:07.011Z,99.90
2019-03-12T05:04:38.113Z,99.90
2019-03-12T05:07:09.296Z,99.90
2019-03-12T05:09:40.347Z,99.90
2019-03-12T05:12:11.447Z,99.90
2019-03-12T05:14:44.765Z,99.90
2019-03-12T05:17:23.706Z,99.90
2019-03-12T05:19:54.832Z,99.90
2019-03-12T05:22:26.209Z,99.90
2019-03-12T05:24:57.277Z,99.90
2019-03-12T05:27:28.522Z,99.90
2019-03-12T05:29:59.633Z,99.90
2019-03-12T05:32:30.709Z,99.90
2019-03-12T05:35:01.843Z,99.90
2019-03-12T05:37:33.051Z,99.90
2019-03-12T05:40:04.649Z,99.90
2019-03-12T05:42:35.748Z,99.90
2019-03-12T05:45:07.192Z,99.90
2019-03-12T05:47:38.209Z,99.90
2019-03-12T05:50:20.815Z,99.90
2019-03-12T05:52:51.855Z,99.90
2019-03-12T05:55:23.040Z,99.90
2019-03-12T05:57:54.082Z,99.90
2019-03-12T06:00:27.159Z,99.90
2019-03-12T06:02:58.261Z,99.90
2019-03-12T06:05:29.632Z,99.90
2019-03-12T06:08:00.698Z,99.90
2019-03-12T06:10:31.773Z,99.90
2019-03-12T06:13:02.824Z,99.90
2019-03-12T06:15:33.923Z,99.90
2019-03-12T06:18:04.983Z,99.90
2019-03-12T06:20:36.657Z,99.90
2019-03-12T06:23:07.753Z,99.90
2019-03-12T06:25:38.827Z,99.90
2019-03-12T06:28:10.039Z,99.90
2019-03-12T06:30:53.477Z,99.90
2019-03-12T06:33:27.901Z,99.90
2019-03-12T06:36:10.039Z,99.90
2019-03-12T06:39:00.017Z,99.90
2019-03-12T06:41:50.607Z,99.90
2019-03-12T06:44:40.602Z,99.90
2019-03-12T06:47:26.869Z,99.90
2019-03-12T06:50:16.933Z,99.90
2019-03-12T06:53:22.345Z,99.90
2019-03-12T06:56:02.871Z,99.90
2019-03-12T06:58:59.823Z,99.90
2019-03-12T07:01:56.063Z,99.90
2019-03-12T07:04:46.051Z,99.90
2019-03-12T07:07:34.901Z,99.90
2019-03-12T07:10:14.013Z,99.90
2019-03-12T07:13:15.247Z,99.90
2019-03-12T07:15:55.035Z,99.90
2019-03-12T07:18:33.404Z,99.90
2019-03-12T07:21:22.259Z,99.90
2019-03-12T07:24:08.087Z,99.90
2019-03-12T07:26:51.671Z,99.90
2019-03-12T07:29:33.721Z,99.90
2019-03-12T07:32:36.757Z,99.90
2019-03-12T07:35:27.499Z,99.90
2019-03-12T07:38:23.457Z,99.90
2019-03-12T07:41:25.064Z,99.90
2019-03-12T07:43:57.693Z,99.90
2019-03-12T07:46:45.657Z,99.90
2019-03-12T07:49:34.451Z,99.90
2019-03-12T07:52:25.597Z,99.90
2019-03-12T07:55:13.643Z,99.90
2019-03-12T07:57:53.734Z,99.90
2019-03-12T08:00:31.119Z,99.90
2019-03-12T08:03:33.287Z,99.90
2019-03-12T08:06:11.087Z,99.90
2019-03-12T08:09:00.141Z,99.90
2019-03-12T08:11:35.891Z,99.90
2019-03-12T08:14:28.977Z,99.90
2019-03-12T08:17:19.639Z,99.90
2019-03-12T08:20:00.948Z,99.90
2019-03-12T08:22:57.063Z,99.90
2019-03-12T08:25:46.517Z,99.90
2019-03-12T08:28:36.519Z,99.90
2019-03-12T08:31:21.373Z,99.90
2019-03-12T08:34:06.123Z,99.90
2019-03-12T08:36:52.331Z,99.90
2019-03-12T08:39:30.056Z,99.90
2019-03-12T08:42:20.068Z,99.90
2019-03-12T08:45:17.515Z,99.90
2019-03-12T08:48:12.803Z,99.90
2019-03-12T08:51:08.332Z,99.90
2019-03-12T08:54:04.196Z,99.90
2019-03-12T08:56:53.029Z,99.90
2019-03-12T08:59:41.839Z,99.90
2019-03-12T09:02:35.091Z,99.90
2019-03-12T09:05:24.495Z,99.90
2019-03-12T09:08:13.156Z,99.90
2019-03-12T09:11:08.976Z,99.90
2019-03-12T09:13:55.619Z,99.90
2019-03-12T09:16:44.529Z,99.90
2019-03-12T09:19:31.640Z,99.90
2019-03-12T09:22:08.612Z,99.90
2019-03-12T09:24:54.963Z,99.90
2019-03-12T09:27:51.060Z,99.90
2019-03-12T09:30:30.063Z,99.90
2019-03-12T09:33:13.566Z,99.90
2019-03-12T09:36:01.259Z,99.90
2019-03-12T09:39:03.633Z,99.90
2019-03-12T09:41:55.111Z,99.90
2019-03-12T09:45:00.370Z,99.90
2019-03-12T09:47:41.913Z,99.90
2019-03-12T09:50:35.015Z,99.90
2019-03-12T09:53:10.106Z,99.90
2019-03-12T09:55:58.851Z,99.90
2019-03-12T09:59:01.228Z,99.90
2019-03-12T10:01:59.466Z,99.90
2019-03-12T10:05:01.378Z,99.90
2019-03-12T10:07:43.759Z,99.90
2019-03-12T10:10:34.530Z,99.90
2019-03-12T10:13:39.582Z,99.90
2019-03-12T10:16:23.609Z,99.90
2019-03-12T10:19:12.472Z,99.90
2019-03-12T10:21:52.851Z,99.90
2019-03-12T10:24:52.167Z,99.90
2019-03-12T10:27:35.549Z,99.90
2019-03-12T10:30:24.189Z,99.90
2019-03-12T10:33:31.641Z,99.90
2019-03-12T10:36:18.626Z,99.90
2019-03-12T10:39:38.846Z,99.90
2019-03-12T10:42:24.327Z,99.90
2019-03-12T10:45:03.660Z,99.90
2019-03-12T10:47:36.103Z,99.90
2019-03-12T10:50:07.545Z,99.90
2019-03-12T10:52:38.721Z,99.50
2019-03-12T10:55:13.570Z,99.20
2019-03-12T10:57:42.757Z,99.90
2019-03-12T11:00:14.228Z,98.50
2019-03-12T11:02:45.348Z,95.40
2019-03-12T11:05:17.395Z,95.00
2019-03-12T11:07:48.553Z,95.00
2019-03-12T11:10:20.093Z,94.50
2019-03-12T11:12:51.442Z,95.00
2019-03-12T11:15:22.845Z,91.10
2019-03-12T11:17:54.086Z,90.30
2019-03-12T11:20:25.214Z,92.00
2019-03-12T11:22:56.363Z,88.30
2019-03-12T11:25:28.575Z,90.50
2019-03-12T11:27:59.831Z,89.90
2019-03-12T11:30:30.900Z,79.90
2019-03-12T11:33:02.129Z,75.90
2019-03-12T11:35:39.152Z,75.20
2019-03-12T11:38:06.120Z,75.50
2019-03-12T11:40:37.211Z,74.50
2019-03-12T11:43:09.494Z,78.40
2019-03-12T11:45:40.824Z,73.70
2019-03-12T11:48:12.105Z,75.30
2019-03-12T11:50:43.221Z,70.00
2019-03-12T11:53:14.466Z,69.30
2019-03-12T11:55:45.672Z,77.70
2019-03-12T11:58:16.880Z,73.80
2019-03-12T12:00:56.715Z,68.60
2019-03-12T12:03:28.851Z,66.50
2019-03-12T12:05:59.982Z,70.20
2019-03-12T12:08:31.081Z,69.70
2019-03-12T12:11:02.347Z,69.20
2019-03-12T12:13:33.559Z,74.60
2019-03-12T12:16:04.744Z,75.30
2019-03-12T12:18:35.928Z,76.30
2019-03-12T12:21:07.885Z,84.90
2019-03-12T12:23:39.078Z,84.60
2019-03-12T12:26:10.381Z,83.30
2019-03-12T12:28:41.519Z,83.80
2019-03-12T12:31:12.607Z,83.50
2019-03-12T12:33:55.080Z,82.00
2019-03-12T12:36:26.389Z,82.00
2019-03-12T12:38:57.633Z,81.50
2019-03-12T12:41:28.775Z,79.10
2019-03-12T12:43:59.879Z,78.40
2019-03-12T12:46:31.119Z,80.90
2019-03-12T12:49:03.315Z,76.60
2019-03-12T12:51:34.452Z,79.80
2019-03-12T12:54:05.663Z,80.00
2019-03-12T12:56:36.911Z,86.70
2019-03-12T12:59:07.975Z,87.40
2019-03-12T13:01:39.347Z,86.80
2019-03-12T13:04:10.403Z,86.70
2019-03-12T13:06:41.627Z,89.60
2019-03-12T13:09:12.733Z,93.00
2019-03-12T13:11:44.771Z,88.90
2019-03-12T13:14:27.458Z,90.20
2019-03-12T13:16:58.945Z,90.80
2019-03-12T13:19:30.034Z,90.90
2019-03-12T13:22:01.189Z,90.30
2019-03-12T13:24:32.312Z,86.50
2019-03-12T13:27:15.233Z,86.40
2019-03-12T13:29:46.343Z,85.80
2019-03-12T13:32:17.576Z,88.60
2019-03-12T13:34:48.689Z,88.90
2019-03-12T13:37:19.917Z,88.80
2019-03-12T13:39:51.122Z,85.90
2019-03-12T13:42:22.333Z,82.90
2019-03-12T13:44:53.497Z,84.70
2019-03-12T13:47:28.748Z,82.00
2019-03-12T13:49:57.701Z,81.60
2019-03-12T13:52:28.892Z,76.50
2019-03-12T13:55:00.080Z,73.60
2019-03-12T13:57:32.109Z,70.10
2019-03-12T14:00:03.285Z,69.50
2019-03-12T14:02:36.584Z,73.60
2019-03-12T14:05:08.371Z,69.60
2019-03-12T14:07:39.540Z,62.10
2019-03-12T14:10:13.272Z,64.10
2019-03-12T14:12:44.587Z,61.30
2019-03-12T14:15:28.826Z,57.80
2019-03-12T14:18:00.073Z,56.30
2019-03-12T14:20:51.481Z,60.20
2019-03-12T14:23:28.293Z,64.90
2019-03-12T14:25:59.480Z,60.00
2019-03-12T14:28:30.596Z,63.30
2019-03-12T14:31:02.020Z,59.90
2019-03-12T14:33:33.177Z,58.10
2019-03-12T14:36:04.464Z,61.20
2019-03-12T14:38:35.686Z,60.00
2019-03-12T14:41:07.219Z,60.00
2019-03-12T14:43:38.440Z,58.70
2019-03-12T14:46:09.511Z,60.00
2019-03-12T14:48:43.598Z,66.90
2019-03-12T14:51:51.956Z,69.20
2019-03-12T14:54:23.139Z,69.20
2019-03-12T14:56:54.220Z,71.00
2019-03-12T14:59:25.358Z,72.90
2019-03-12T15:01:56.539Z,76.20
2019-03-12T15:04:27.939Z,72.50
2019-03-12T15:06:59.053Z,75.90
2019-03-12T15:09:30.119Z,81.30
2019-03-12T15:12:01.251Z,79.90
2019-03-12T15:14:32.376Z,81.90
2019-03-12T15:17:03.563Z,82.20
2019-03-12T15:19:34.721Z,83.60
2019-03-12T15:22:05.963Z,86.20
2019-03-12T15:24:38.274Z,85.90
2019-03-12T15:27:09.408Z,87.70
2019-03-12T15:29:40.873Z,85.10
2019-03-12T15:32:12.247Z,88.30
2019-03-12T15:34:43.410Z,88.20
2019-03-12T15:37:14.667Z,86.80
2019-03-12T15:39:45.802Z,88.50
2019-03-12T15:42:16.920Z,87.20
2019-03-12T15:44:48.140Z,86.50
2019-03-12T15:47:19.335Z,87.90
2019-03-12T15:49:51.557Z,88.10
2019-03-12T15:52:22.705Z,88.90
2019-03-12T15:54:53.739Z,90.20
2019-03-12T15:57:24.988Z,90.10
2019-03-12T15:59:56.083Z,90.40
2019-03-12T16:02:27.265Z,90.40
2019-03-12T16:04:58.477Z,91.70
2019-03-12T16:07:29.661Z,91.00
2019-03-12T16:10:01.727Z,92.50
2019-03-12T16:12:33.772Z,93.10
2019-03-12T16:15:05.073Z,92.90
2019-03-12T16:17:36.388Z,93.10
2019-03-12T16:20:09.037Z,93.60
2019-03-12T16:22:40.138Z,94.00
2019-03-12T16:25:11.355Z,93.50
2019-03-12T16:27:42.483Z,94.00
2019-03-12T16:30:13.963Z,94.60
2019-03-12T16:32:45.181Z,94.30
2019-03-12T16:35:16.535Z,94.70
2019-03-12T16:37:47.858Z,95.70
2019-03-12T16:40:19.132Z,95.20
2019-03-12T16:42:57.281Z,96.10
2019-03-12T16:45:28.461Z,95.80
2019-03-12T16:48:00.987Z,95.90
2019-03-12T16:50:32.320Z,96.40
2019-03-12T16:53:03.420Z,96.10
2019-03-12T16:55:34.637Z,96.10
2019-03-12T16:58:05.803Z,95.70
2019-03-12T17:00:36.947Z,95.50
2019-03-12T17:03:08.150Z,95.70
2019-03-12T17:05:39.393Z,95.60
2019-03-12T17:08:10.537Z,96.10
2019-03-12T17:10:53.951Z,96.00
2019-03-12T17:13:14.726Z,96.20
2019-03-12T17:15:45.941Z,96.70
2019-03-12T17:18:17.055Z,97.20
2019-03-12T17:20:48.307Z,96.70
2019-03-12T17:23:19.579Z,97.40
2019-03-12T17:25:50.924Z,97.70
2019-03-12T17:28:22.103Z,98.10
2019-03-12T17:30:53.200Z,98.40
2019-03-12T17:33:24.493Z,98.90
2019-03-12T17:35:56.311Z,99.00
2019-03-12T17:38:27.530Z,99.00
2019-03-12T17:40:58.775Z,99.30
2019-03-12T17:43:30.124Z,99.50
2019-03-12T17:46:01.304Z,99.70
2019-03-12T17:48:32.533Z,99.70
2019-03-12T17:51:05.193Z,99.80
2019-03-12T17:53:36.289Z,99.90
2019-03-12T17:56:07.763Z,99.90
2019-03-12T17:58:39.059Z,99.90
2019-03-12T18:01:10.208Z,99.90
2019-03-12T18:03:41.420Z,99.90
2019-03-12T18:06:12.828Z,99.90
2019-03-12T18:08:44.213Z,99.90
2019-03-12T18:11:15.536Z,99.90
2019-03-12T18:13:46.934Z,99.90
2019-03-12T18:16:18.229Z,99.90
2019-03-12T18:18:49.591Z,99.90
2019-03-12T18:21:20.899Z,99.90
2019-03-12T18:23:54.277Z,99.90
2019-03-12T18:26:25.667Z,99.90
2019-03-12T18:28:59.264Z,99.90
2019-03-12T18:31:29.988Z,99.90
2019-03-12T18:34:01.217Z,99.90
2019-03-12T18:36:32.890Z,99.90
2019-03-12T18:39:06.069Z,99.90
2019-03-12T18:41:39.244Z,99.90
2019-03-12T18:44:14.372Z,99.90
2019-03-12T18:46:45.650Z,99.90
2019-03-12T18:49:17.084Z,99.90
2019-03-12T18:51:48.335Z,99.90
2019-03-12T18:54:19.551Z,99.90
2019-03-12T18:56:50.704Z,99.90
2019-03-12T18:59:22.058Z,99.90
2019-03-12T19:01:53.944Z,99.90
2019-03-12T19:04:25.147Z,99.90
2019-03-12T19:06:56.793Z,99.90
2019-03-12T19:09:28.118Z,99.90
2019-03-12T19:11:59.327Z,99.90
2019-03-12T19:14:30.601Z,99.90
2019-03-12T19:17:01.857Z,99.90
2019-03-12T19:19:33.129Z,99.90
2019-03-12T19:22:04.445Z,99.90
2019-03-12T19:24:35.649Z,99.90
2019-03-12T19:27:07.345Z,99.90
2019-03-12T19:29:39.609Z,99.90
2019-03-12T19:32:38.737Z,99.90
2019-03-12T19:35:13.053Z,99.90
2019-03-12T19:37:44.323Z,99.90
2019-03-12T19:40:17.375Z,99.90
2019-03-12T19:42:53.083Z,99.90
2019-03-12T19:45:24.431Z,99.90
2019-03-12T19:47:55.685Z,99.90
2019-03-12T19:50:27.708Z,99.90
2019-03-12T19:53:00.277Z,99.90
2019-03-12T19:55:37.533Z,99.90
2019-03-12T19:58:08.841Z,99.90
2019-03-12T20:00:41.217Z,99.90
2019-03-12T20:03:15.344Z,99.90
2019-03-12T20:05:46.784Z,99.90
2019-03-12T20:08:18.387Z,99.90
2019-03-12T20:11:28.339Z,99.90
2019-03-12T20:14:49.403Z,99.90
2019-03-12T20:18:07.863Z,99.90
2019-03-12T20:21:18.938Z,99.90
2019-03-12T20:24:26.123Z,99.90
2019-03-12T20:27:35.188Z,99.90
2019-03-12T20:30:59.066Z,99.90
2019-03-12T20:34:26.707Z,99.90
2019-03-12T20:37:34.831Z,99.90
2019-03-12T20:40:41.542Z,99.90
2019-03-12T20:44:00.353Z,99.90
2019-03-12T20:47:09.708Z,99.90
2019-03-12T20:50:25.946Z,99.90
2019-03-12T20:53:40.127Z,99.90
2019-03-12T20:56:51.690Z,99.90
2019-03-12T21:00:16.555Z,99.90
2019-03-12T21:03:57.526Z,99.90
2019-03-12T21:07:24.559Z,99.90
2019-03-12T21:10:49.360Z,99.90
2019-03-12T21:13:58.076Z,99.90
2019-03-12T21:17:03.186Z,99.90
2019-03-12T21:20:21.315Z,99.90
2019-03-12T21:23:06.663Z,99.90
2019-03-12T21:26:05.297Z,99.90
2019-03-12T21:29:16.022Z,99.90
2019-03-12T21:31:47.184Z,99.90
2019-03-12T21:34:18.257Z,99.90
2019-03-12T21:36:49.416Z,99.90
2019-03-12T21:39:20.648Z,99.90
2019-03-12T21:41:51.845Z,99.90
2019-03-12T21:44:22.979Z,99.90
2019-03-12T21:46:54.923Z,99.90
2019-03-12T21:49:26.104Z,99.90
2019-03-12T21:51:57.302Z,99.90
2019-03-12T21:54:28.552Z,99.90
2019-03-12T21:56:59.702Z,99.90
2019-03-12T21:59:30.867Z,99.90
2019-03-12T22:02:02.102Z,99.90
2019-03-12T22:04:33.268Z,99.90
2019-03-12T22:07:04.459Z,99.90
2019-03-12T22:09:35.660Z,99.90
2019-03-12T22:12:07.596Z,99.90
2019-03-12T22:14:38.769Z,99.90
2019-03-12T22:17:09.893Z,99.90
2019-03-12T22:19:41.224Z,99.90
2019-03-12T22:22:29.847Z,99.90
2019-03-12T22:25:01.144Z,99.90
2019-03-12T22:27:32.423Z,99.90
2019-03-12T22:30:03.750Z,99.90
2019-03-12T22:32:36.458Z,99.90
2019-03-12T22:35:08.594Z,99.90
2019-03-12T22:37:39.736Z,99.90
2019-03-12T22:40:12.449Z,99.90
2019-03-12T22:42:43.622Z,99.90
2019-03-12T22:45:14.827Z,99.90
2019-03-12T22:47:45.983Z,99.90
2019-03-12T22:50:17.198Z,99.90
2019-03-12T22:52:48.526Z,99.90
2019-03-12T22:55:19.675Z,99.90
2019-03-12T22:57:50.860Z,99.90
2019-03-12T23:00:39.973Z,99.90
2019-03-12T23:03:29.429Z,99.90
2019-03-12T23:06:18.616Z,99.90
2019-03-12T23:09:07.871Z,99.90
2019-03-12T23:11:40.740Z,99.90
2019-03-12T23:14:12.582Z,99.90
2019-03-12T23:16:43.930Z,99.90
2019-03-12T23:19:15.616Z,99.90
2019-03-12T23:21:46.982Z,99.90
2019-03-12T23:24:18.121Z,99.90
2019-03-12T23:26:49.324Z,99.90
2019-03-12T23:29:20.575Z,99.90
2019-03-12T23:31:51.758Z,99.90
2019-03-12T23:34:22.951Z,99.90
2019-03-12T23:36:55.259Z,99.90
2019-03-12T23:39:26.432Z,99.90
2019-03-12T23:41:58.022Z,99.90
2019-03-12T23:44:29.246Z,99.90
2019-03-12T23:47:00.405Z,99.90
2019-03-12T23:49:31.710Z,99.90
2019-03-12T23:52:02.823Z,99.90
2019-03-12T23:54:34.694Z,99.90
2019-03-12T23:57:05.954Z,99.90
2019-03-12T23:59:37.493Z,99.90
